Terminal Aerodrome Forecast
Issued by NWS

Home | Current Version | Previous Version | Graphics & Text | Print | Product List | Glossary On
Versions: 1 2 3 4 5 6 7 8 9 10 11 12 13 14 15 16 17 18 19 20
000
FTUS43 KICT 300520
TAFCNU
TAF
KCNU 300520Z 3006/3106 07006KT P6SM VCSH BKN020
     FM300700 09007KT P6SM VCSH BKN008
     FM301100 32008KT 4SM BR VCSH BKN003
     FM301200 26006KT 5SM -SHRA OVC008
     FM301700 30009KT 5SM -SHRA OVC015
     FM310000 31010KT P6SM BKN015
     FM310400 32007KT P6SM BKN035=

USA.gov is the U.S. government's official web portal to all federal, state and local government web resources and services.